createdAt,value
2023-10-06T00:01:57.728Z,14.68
2023-10-06T00:04:27.764Z,14.69
2023-10-06T00:07:07.362Z,14.69
2023-10-06T00:09:37.881Z,14.70
2023-10-06T00:12:08.484Z,14.71
2023-10-06T00:14:41.296Z,14.71
2023-10-06T00:17:12.858Z,14.71
2023-10-06T00:19:42.767Z,14.72
2023-10-06T00:22:18.678Z,14.72
2023-10-06T00:24:51.341Z,14.73
2023-10-06T00:27:26.004Z,14.74
2023-10-06T00:29:56.358Z,14.74
2023-10-06T00:32:27.982Z,14.75
2023-10-06T00:35:12.969Z,14.75
2023-10-06T00:37:43.390Z,14.76
2023-10-06T00:40:20.836Z,14.76
2023-10-06T00:42:57.918Z,14.77
2023-10-06T00:45:31.631Z,14.78
2023-10-06T00:48:06.154Z,14.78
2023-10-06T00:50:36.560Z,14.78
2023-10-06T00:53:06.643Z,14.79
2023-10-06T00:55:36.837Z,14.78
2023-10-06T00:58:09.859Z,14.78
2023-10-06T01:00:40.981Z,14.77
2023-10-06T01:03:16.009Z,14.77
2023-10-06T01:05:47.026Z,14.76
2023-10-06T01:08:17.452Z,14.76
2023-10-06T01:10:52.411Z,14.75
2023-10-06T01:13:23.861Z,14.74
2023-10-06T01:15:57.607Z,14.73
2023-10-06T01:18:35.133Z,14.72
2023-10-06T01:21:18.305Z,14.71
2023-10-06T01:23:49.414Z,14.70
2023-10-06T01:26:19.269Z,14.69
2023-10-06T01:28:49.182Z,14.68
2023-10-06T01:31:22.288Z,14.67
2023-10-06T01:33:52.666Z,14.66
2023-10-06T01:36:24.304Z,14.65
2023-10-06T01:38:54.425Z,14.63
2023-10-06T01:41:27.625Z,14.62
2023-10-06T01:43:58.024Z,14.60
2023-10-06T01:46:29.589Z,14.59
2023-10-06T01:49:02.306Z,14.58
2023-10-06T01:51:36.950Z,14.56
2023-10-06T01:54:08.402Z,14.53
2023-10-06T01:56:38.490Z,14.51
2023-10-06T01:59:08.715Z,14.49
2023-10-06T02:01:42.373Z,14.46
2023-10-06T02:04:12.884Z,14.43
2023-10-06T02:06:43.244Z,14.40
2023-10-06T02:09:26.582Z,14.37
2023-10-06T02:11:56.872Z,14.33
2023-10-06T02:14:26.844Z,14.30
2023-10-06T02:16:57.027Z,14.27
2023-10-06T02:19:30.038Z,14.24
2023-10-06T02:22:00.846Z,14.21
2023-10-06T02:24:30.662Z,14.16
2023-10-06T02:27:04.058Z,14.08
2023-10-06T02:29:33.991Z,13.99
2023-10-06T02:32:08.734Z,13.90
2023-10-06T02:34:40.695Z,13.81
2023-10-06T02:37:11.536Z,13.71
2023-10-06T02:39:44.640Z,13.61
2023-10-06T02:42:15.821Z,13.55
2023-10-06T02:44:46.547Z,13.46
2023-10-06T02:47:17.209Z,13.39
2023-10-06T02:49:51.218Z,13.34
2023-10-06T02:52:22.476Z,13.30
2023-10-06T02:55:19.005Z,13.26
2023-10-06T02:57:57.245Z,13.22
2023-10-06T03:00:30.530Z,13.20
2023-10-06T03:03:13.961Z,13.19
2023-10-06T03:05:50.995Z,13.20
2023-10-06T03:08:28.931Z,13.21
2023-10-06T03:10:59.043Z,13.22
2023-10-06T03:13:44.647Z,13.22
2023-10-06T03:16:20.963Z,13.23
2023-10-06T03:18:53.667Z,13.24
2023-10-06T03:21:23.844Z,13.25
2023-10-06T03:24:06.543Z,13.25
2023-10-06T03:26:45.175Z,13.24
2023-10-06T03:29:29.538Z,13.24
2023-10-06T03:32:00.143Z,13.24
2023-10-06T03:34:30.281Z,13.23
2023-10-06T03:37:00.551Z,13.24
2023-10-06T03:39:32.453Z,13.24
2023-10-06T03:42:08.329Z,13.23
2023-10-06T03:44:38.438Z,13.23
2023-10-06T03:47:09.932Z,13.22
2023-10-06T03:49:41.673Z,13.21
2023-10-06T03:52:12.236Z,13.20
2023-10-06T03:54:43.004Z,13.17
2023-10-06T03:57:16.374Z,13.15
2023-10-06T03:59:46.537Z,13.14
2023-10-06T04:02:16.810Z,13.12
2023-10-06T04:04:46.812Z,13.11
2023-10-06T04:07:17.272Z,13.10
2023-10-06T04:09:50.547Z,13.10
2023-10-06T04:12:20.563Z,13.09
2023-10-06T04:14:51.314Z,13.07
2023-10-06T04:17:22.902Z,13.05
2023-10-06T04:19:53.261Z,13.02
2023-10-06T04:22:23.272Z,13.00
2023-10-06T04:24:53.302Z,12.99
2023-10-06T04:27:23.150Z,12.98
2023-10-06T04:29:54.003Z,12.96
2023-10-06T04:32:26.266Z,12.95
2023-10-06T04:34:56.716Z,12.94
2023-10-06T04:37:27.277Z,12.93
2023-10-06T04:39:57.478Z,12.91
2023-10-06T04:42:28.875Z,12.90
2023-10-06T04:44:58.874Z,12.90
2023-10-06T04:47:32.294Z,12.89
2023-10-06T04:50:02.202Z,12.89
2023-10-06T04:52:32.612Z,12.88
2023-10-06T04:55:04.677Z,12.88
2023-10-06T04:57:34.815Z,12.88
2023-10-06T05:00:14.271Z,12.89
2023-10-06T05:02:45.116Z,12.89
2023-10-06T05:05:15.352Z,12.91
2023-10-06T05:07:46.972Z,12.92
2023-10-06T05:10:23.123Z,12.92
2023-10-06T05:12:53.108Z,12.94
2023-10-06T05:15:27.543Z,12.95
2023-10-06T05:17:57.586Z,12.96
2023-10-06T05:20:30.966Z,12.98
2023-10-06T05:23:08.467Z,12.99
2023-10-06T05:25:38.897Z,13.02
2023-10-06T05:28:11.638Z,13.05
2023-10-06T05:30:43.350Z,13.08
2023-10-06T05:33:15.659Z,13.10
2023-10-06T05:35:47.068Z,13.13
2023-10-06T05:38:17.398Z,13.17
2023-10-06T05:40:49.256Z,13.19
2023-10-06T05:43:19.421Z,13.23
2023-10-06T05:45:53.425Z,13.25
2023-10-06T05:48:24.414Z,13.29
2023-10-06T05:51:02.530Z,13.33
2023-10-06T05:53:39.627Z,13.36
2023-10-06T05:56:09.930Z,13.39
2023-10-06T05:58:41.610Z,13.41
2023-10-06T06:01:14.337Z,13.44
2023-10-06T06:03:48.291Z,13.47
2023-10-06T06:06:24.468Z,13.51
2023-10-06T06:08:57.399Z,13.54
2023-10-06T06:11:29.098Z,13.56
2023-10-06T06:14:15.210Z,13.59
2023-10-06T06:16:47.326Z,13.62
2023-10-06T06:19:17.327Z,13.64
2023-10-06T06:21:48.061Z,13.66
2023-10-06T06:24:21.458Z,13.69
2023-10-06T06:26:52.017Z,13.72
2023-10-06T06:29:22.060Z,13.76
2023-10-06T06:31:54.152Z,13.79
2023-10-06T06:34:24.410Z,13.81
2023-10-06T06:36:54.803Z,13.83
2023-10-06T06:39:24.645Z,13.86
2023-10-06T06:41:54.804Z,13.89
2023-10-06T06:44:27.139Z,13.91
2023-10-06T06:46:57.217Z,13.94
2023-10-06T06:49:28.007Z,13.97
2023-10-06T06:52:00.899Z,13.98
2023-10-06T06:54:37.860Z,14.01
2023-10-06T06:57:07.820Z,14.05
2023-10-06T06:59:40.196Z,14.08
2023-10-06T07:02:13.276Z,14.11
2023-10-06T07:04:43.364Z,14.13
2023-10-06T07:07:14.376Z,14.15
2023-10-06T07:09:44.539Z,14.16
2023-10-06T07:12:14.441Z,14.19
2023-10-06T07:14:44.477Z,14.21
2023-10-06T07:17:14.547Z,14.24
2023-10-06T07:19:44.996Z,14.28
2023-10-06T07:22:16.806Z,14.31
2023-10-06T07:24:48.259Z,14.34
2023-10-06T07:27:18.699Z,14.39
2023-10-06T07:29:49.017Z,14.43
2023-10-06T07:32:19.446Z,14.47
2023-10-06T07:34:51.915Z,14.52
2023-10-06T07:37:22.742Z,14.56
2023-10-06T07:39:52.645Z,14.60
2023-10-06T07:42:22.594Z,14.62
2023-10-06T07:44:52.714Z,14.65
2023-10-06T07:47:25.630Z,14.67
2023-10-06T07:49:55.744Z,14.70
2023-10-06T07:52:25.752Z,14.74
2023-10-06T07:54:55.924Z,14.77
2023-10-06T07:57:26.404Z,14.81
2023-10-06T07:59:58.827Z,14.84
2023-10-06T08:02:30.409Z,14.87
2023-10-06T08:05:00.870Z,14.90
2023-10-06T08:07:31.956Z,14.92
2023-10-06T08:10:04.549Z,14.94
2023-10-06T08:12:35.126Z,14.96
2023-10-06T08:15:10.672Z,14.97
2023-10-06T08:17:40.816Z,14.99
2023-10-06T08:20:13.622Z,14.99
2023-10-06T08:22:47.656Z,15.03
2023-10-06T08:25:18.270Z,15.07
2023-10-06T08:27:49.979Z,15.12
2023-10-06T08:30:20.457Z,15.17
2023-10-06T08:32:53.283Z,15.21
2023-10-06T08:35:23.765Z,15.27
2023-10-06T08:37:54.025Z,15.31
2023-10-06T08:40:24.685Z,15.36
2023-10-06T08:42:55.446Z,15.41
2023-10-06T08:45:26.634Z,15.44
2023-10-06T08:48:03.871Z,15.46
2023-10-06T08:50:35.067Z,15.48
2023-10-06T08:53:06.904Z,15.51
2023-10-06T08:55:37.624Z,15.53
2023-10-06T08:58:14.906Z,15.56
2023-10-06T09:00:45.674Z,15.60
2023-10-06T09:03:16.291Z,15.65
2023-10-06T09:05:46.483Z,15.71
2023-10-06T09:08:16.820Z,15.77
2023-10-06T09:10:50.855Z,15.82
2023-10-06T09:13:22.749Z,15.86
2023-10-06T09:16:07.879Z,15.93
2023-10-06T09:18:41.125Z,15.99
2023-10-06T09:21:14.798Z,16.06
2023-10-06T09:23:44.855Z,16.11
2023-10-06T09:26:27.824Z,16.14
2023-10-06T09:29:02.726Z,16.17
2023-10-06T09:31:39.876Z,16.20
2023-10-06T09:34:11.289Z,16.21
2023-10-06T09:36:46.118Z,16.22
2023-10-06T09:39:20.892Z,16.24
2023-10-06T09:41:51.600Z,16.27
2023-10-06T09:44:22.571Z,16.30
2023-10-06T09:46:55.147Z,16.34
2023-10-06T09:49:25.601Z,16.37
2023-10-06T09:51:57.437Z,16.42
2023-10-06T09:54:27.743Z,16.47
2023-10-06T09:56:58.131Z,16.53
2023-10-06T09:59:28.251Z,16.59
2023-10-06T10:01:59.001Z,16.65
2023-10-06T10:04:30.868Z,16.72
2023-10-06T10:07:03.410Z,16.78
2023-10-06T10:12:31.959Z,16.87
2023-10-06T10:15:13.230Z,16.90
2023-10-06T10:17:46.127Z,16.94
2023-10-06T10:20:17.237Z,16.98
2023-10-06T10:22:47.257Z,17.02
2023-10-06T10:25:25.347Z,17.07
2023-10-06T10:28:15.229Z,17.12
2023-10-06T10:30:52.574Z,17.14
2023-10-06T10:33:26.754Z,17.13
2023-10-06T10:36:23.867Z,17.14
2023-10-06T10:39:14.155Z,17.15
2023-10-06T10:41:44.097Z,17.17
2023-10-06T10:44:26.182Z,17.19
2023-10-06T10:47:02.966Z,17.21
2023-10-06T10:49:34.417Z,17.23
2023-10-06T10:52:06.781Z,17.26
2023-10-06T10:54:37.121Z,17.27
2023-10-06T10:57:11.034Z,17.29
2023-10-06T11:00:10.777Z,17.33
2023-10-06T11:03:01.129Z,17.36
2023-10-06T11:05:32.557Z,17.41
2023-10-06T11:11:00.922Z,17.47
2023-10-06T11:13:48.336Z,17.49
2023-10-06T11:16:26.045Z,17.49
2023-10-06T11:18:57.795Z,17.49
2023-10-06T11:21:28.235Z,17.49
2023-10-06T11:23:59.467Z,17.48
2023-10-06T11:26:32.915Z,17.50
2023-10-06T11:29:03.251Z,17.53
2023-10-06T11:31:34.001Z,17.55
2023-10-06T11:34:04.365Z,17.56
2023-10-06T11:36:34.750Z,17.59
2023-10-06T11:39:05.083Z,17.61
2023-10-06T11:41:34.977Z,17.65
2023-10-06T11:44:05.418Z,17.67
2023-10-06T11:52:02.098Z,17.61
2023-10-06T11:54:33.401Z,17.67
2023-10-06T11:57:04.274Z,17.68
2023-10-06T11:59:34.531Z,17.67
2023-10-06T12:02:10.415Z,17.68
2023-10-06T12:04:40.700Z,17.68
2023-10-06T12:07:10.901Z,17.70
2023-10-06T12:09:41.066Z,17.72
2023-10-06T12:12:11.033Z,17.74
2023-10-06T12:14:41.159Z,17.78
2023-10-06T12:17:13.407Z,17.80
2023-10-06T12:19:43.539Z,17.83
2023-10-06T12:22:17.224Z,17.86
2023-10-06T12:24:49.836Z,17.92
2023-10-06T12:27:19.717Z,17.95
2023-10-06T12:29:50.217Z,17.98
2023-10-06T12:32:20.130Z,18.01
2023-10-06T12:34:50.503Z,18.03
2023-10-06T12:37:20.431Z,18.05
2023-10-06T12:39:53.130Z,18.05
2023-10-06T12:42:23.216Z,18.04
2023-10-06T12:44:53.939Z,18.04
2023-10-06T12:47:24.212Z,18.06
2023-10-06T12:49:54.212Z,18.11
2023-10-06T12:52:24.527Z,18.14
2023-10-06T12:54:55.626Z,18.18
2023-10-06T12:57:26.561Z,18.20
2023-10-06T12:59:58.403Z,18.24
2023-10-06T13:02:28.814Z,18.28
2023-10-06T13:04:59.210Z,18.31
2023-10-06T13:07:32.288Z,18.34
2023-10-06T13:10:07.500Z,18.36
2023-10-06T13:12:41.394Z,18.36
2023-10-06T13:15:18.813Z,18.33
2023-10-06T13:17:49.895Z,18.31
2023-10-06T13:20:20.046Z,18.31
2023-10-06T13:22:50.568Z,18.29
2023-10-06T13:25:20.602Z,18.29
2023-10-06T13:27:50.890Z,18.28
2023-10-06T13:30:23.532Z,18.28
2023-10-06T13:32:58.464Z,18.28
2023-10-06T13:35:29.165Z,18.29
2023-10-06T13:37:59.876Z,18.30
2023-10-06T13:40:30.658Z,18.30
2023-10-06T13:43:01.238Z,18.29
2023-10-06T13:45:32.351Z,18.28
2023-10-06T13:48:05.260Z,18.28
2023-10-06T13:50:37.859Z,18.27
2023-10-06T13:53:09.541Z,18.26
2023-10-06T13:55:40.502Z,18.25
2023-10-06T13:58:10.847Z,18.22
2023-10-06T14:00:41.968Z,18.18
2023-10-06T14:03:15.862Z,18.13
2023-10-06T14:05:57.485Z,18.09
2023-10-06T14:08:29.092Z,18.02
2023-10-06T14:10:59.621Z,17.94
2023-10-06T14:13:34.749Z,17.87
2023-10-06T14:16:11.846Z,17.80
2023-10-06T14:18:42.030Z,17.73
2023-10-06T14:21:14.585Z,17.65
2023-10-06T14:23:47.500Z,17.57
2023-10-06T14:26:20.036Z,17.50
2023-10-06T14:28:51.468Z,17.44
2023-10-06T14:31:35.899Z,17.38
2023-10-06T14:34:24.940Z,17.33
2023-10-06T14:36:58.820Z,17.25
2023-10-06T14:39:47.595Z,17.19
2023-10-06T14:42:35.809Z,17.14
2023-10-06T14:45:26.153Z,17.08
2023-10-06T14:47:56.823Z,17.02
2023-10-06T14:50:26.827Z,16.98
2023-10-06T14:52:56.974Z,16.94
2023-10-06T14:55:27.142Z,16.90
2023-10-06T14:57:57.044Z,16.85
2023-10-06T15:00:28.160Z,16.82
2023-10-06T15:02:58.392Z,16.78
2023-10-06T15:05:33.564Z,16.69
2023-10-06T15:08:03.933Z,16.58
2023-10-06T15:10:34.777Z,16.42
2023-10-06T15:13:05.050Z,16.30
2023-10-06T15:15:36.111Z,16.18
2023-10-06T15:18:16.220Z,16.07
2023-10-06T15:20:48.834Z,15.93
2023-10-06T15:23:20.007Z,15.81
2023-10-06T15:25:57.706Z,15.71
2023-10-06T15:28:38.089Z,15.61
2023-10-06T15:31:11.968Z,15.52
2023-10-06T15:33:45.231Z,15.47
2023-10-06T15:36:17.112Z,15.42
2023-10-06T15:38:47.222Z,15.38
2023-10-06T15:41:17.367Z,15.35
2023-10-06T15:43:47.500Z,15.32
2023-10-06T15:46:17.580Z,15.28
2023-10-06T15:48:47.528Z,15.25
2023-10-06T15:51:19.972Z,15.21
2023-10-06T15:53:51.839Z,15.17
2023-10-06T15:56:22.285Z,15.14
2023-10-06T15:58:52.400Z,15.11
2023-10-06T16:01:22.652Z,15.06
2023-10-06T16:03:53.482Z,15.01
2023-10-06T16:06:23.590Z,14.95
2023-10-06T16:08:56.792Z,14.89
2023-10-06T16:11:26.754Z,14.83
2023-10-06T16:13:56.810Z,14.78
2023-10-06T16:16:26.869Z,14.71
2023-10-06T16:18:56.859Z,14.64
2023-10-06T16:21:26.852Z,14.56
2023-10-06T16:23:56.764Z,14.49
2023-10-06T16:26:27.334Z,14.41
2023-10-06T16:28:57.279Z,14.33
2023-10-06T16:31:27.490Z,14.25
2023-10-06T16:33:58.429Z,14.16
2023-10-06T16:36:28.529Z,14.08
2023-10-06T16:38:58.995Z,13.99
2023-10-06T16:41:29.143Z,13.90
2023-10-06T16:43:59.598Z,13.81
2023-10-06T16:46:29.769Z,13.72
2023-10-06T16:48:59.888Z,13.62
2023-10-06T16:51:31.280Z,13.53
2023-10-06T16:54:01.502Z,13.44
2023-10-06T16:56:31.575Z,13.37
2023-10-06T16:59:01.774Z,13.30
2023-10-06T17:01:32.264Z,13.22
2023-10-06T17:04:05.958Z,13.14
2023-10-06T17:06:36.793Z,13.08
2023-10-06T17:09:16.014Z,13.00
2023-10-06T17:11:47.463Z,12.94
2023-10-06T17:14:17.548Z,12.87
2023-10-06T17:16:48.293Z,12.81
2023-10-06T17:19:18.520Z,12.75
2023-10-06T17:21:48.456Z,12.68
2023-10-06T17:24:18.532Z,12.63
2023-10-06T17:26:48.712Z,12.58
2023-10-06T17:29:18.655Z,12.53
2023-10-06T17:31:48.700Z,12.46
2023-10-06T17:34:19.182Z,12.39
2023-10-06T17:36:51.174Z,12.33
2023-10-06T17:39:26.933Z,12.27
2023-10-06T17:41:57.419Z,12.20
2023-10-06T17:44:28.872Z,12.13
2023-10-06T17:46:58.852Z,12.05
2023-10-06T17:49:30.500Z,11.98
2023-10-06T17:52:01.315Z,11.93
2023-10-06T17:54:32.162Z,11.88
2023-10-06T17:57:02.389Z,11.77
2023-10-06T17:59:32.740Z,11.68
2023-10-06T18:02:02.886Z,11.59
2023-10-06T18:04:34.426Z,11.51
2023-10-06T18:07:05.255Z,11.44
2023-10-06T18:09:35.446Z,11.36
2023-10-06T18:12:24.141Z,11.31
2023-10-06T18:14:55.892Z,11.24
2023-10-06T18:17:27.945Z,11.17
2023-10-06T18:19:57.995Z,11.11
2023-10-06T18:22:28.494Z,11.06
2023-10-06T18:24:58.681Z,11.01
2023-10-06T18:27:29.553Z,10.96
2023-10-06T18:29:59.551Z,10.93
2023-10-06T18:32:30.889Z,10.88
2023-10-06T18:35:01.552Z,10.83
2023-10-06T18:37:31.863Z,10.78
2023-10-06T18:40:01.777Z,10.74
2023-10-06T18:42:31.692Z,10.70
2023-10-06T18:45:01.912Z,10.67
2023-10-06T18:47:32.914Z,10.64
2023-10-06T18:50:10.737Z,10.61
2023-10-06T18:52:40.648Z,10.58
2023-10-06T18:55:12.680Z,10.55
2023-10-06T18:57:42.940Z,10.52
2023-10-06T19:00:14.868Z,10.49
2023-10-06T19:02:46.942Z,10.46
2023-10-06T19:05:16.980Z,10.41
2023-10-06T19:07:47.390Z,10.35
2023-10-06T19:10:17.489Z,10.29
2023-10-06T19:12:49.855Z,10.21
2023-10-06T19:15:19.883Z,10.09
2023-10-06T19:17:50.006Z,10.00
2023-10-06T19:20:20.232Z,9.93
2023-10-06T19:22:51.064Z,9.85
2023-10-06T19:25:21.144Z,9.79
2023-10-06T19:27:54.714Z,9.71
2023-10-06T19:30:25.530Z,9.64
2023-10-06T19:32:56.986Z,9.58
2023-10-06T19:35:28.071Z,9.55
2023-10-06T19:37:57.920Z,9.53
2023-10-06T19:40:28.206Z,9.52
2023-10-06T19:42:58.334Z,9.52
2023-10-06T19:45:28.808Z,9.52
2023-10-06T19:47:59.072Z,9.52
2023-10-06T19:50:29.054Z,9.53
2023-10-06T19:52:59.104Z,9.54
2023-10-06T19:55:29.240Z,9.55
2023-10-06T19:57:59.228Z,9.55
2023-10-06T20:00:29.386Z,9.56
2023-10-06T20:02:59.562Z,9.58
2023-10-06T20:05:29.766Z,9.59
2023-10-06T20:07:59.958Z,9.58
2023-10-06T20:10:31.564Z,9.59
2023-10-06T20:13:01.784Z,9.61
2023-10-06T20:15:32.442Z,9.61
2023-10-06T20:18:02.547Z,9.61
2023-10-06T20:20:33.067Z,9.61
2023-10-06T20:23:03.235Z,9.61
2023-10-06T20:25:34.111Z,9.61
2023-10-06T20:28:05.002Z,9.60
2023-10-06T20:30:35.316Z,9.59
2023-10-06T20:33:05.965Z,9.58
2023-10-06T20:35:36.253Z,9.58
2023-10-06T20:38:06.214Z,9.57
2023-10-06T20:40:36.162Z,9.56
2023-10-06T20:43:08.794Z,9.55
2023-10-06T20:45:38.730Z,9.54
2023-10-06T20:48:10.904Z,9.52
2023-10-06T20:50:44.258Z,9.49
2023-10-06T20:53:17.369Z,9.45
2023-10-06T20:55:47.502Z,9.41
2023-10-06T20:58:17.724Z,9.39
2023-10-06T21:00:48.780Z,9.38
2023-10-06T21:03:18.809Z,9.37
2023-10-06T21:05:49.419Z,9.36
2023-10-06T21:08:20.327Z,9.35
2023-10-06T21:10:51.084Z,9.33
2023-10-06T21:13:21.142Z,9.32
2023-10-06T21:15:51.717Z,9.31
2023-10-06T21:18:21.684Z,9.28
2023-10-06T21:20:51.714Z,9.25
2023-10-06T21:23:21.560Z,9.23
2023-10-06T21:25:53.328Z,9.21
2023-10-06T21:28:24.398Z,9.19
2023-10-06T21:30:54.338Z,9.17
2023-10-06T21:33:24.277Z,9.14
2023-10-06T21:35:54.181Z,9.12
2023-10-06T21:38:24.042Z,9.09
2023-10-06T21:40:59.021Z,9.07
2023-10-06T21:43:28.989Z,9.05
2023-10-06T21:45:59.055Z,9.02
2023-10-06T21:48:28.983Z,8.99
2023-10-06T21:50:58.960Z,8.97
2023-10-06T21:53:29.533Z,8.94
2023-10-06T21:56:10.674Z,8.92
2023-10-06T21:58:40.911Z,8.90
2023-10-06T22:01:14.870Z,8.87
2023-10-06T22:03:46.458Z,8.84
2023-10-06T22:06:22.001Z,8.82
2023-10-06T22:08:52.299Z,8.80
2023-10-06T22:11:25.600Z,8.77
2023-10-06T22:13:55.913Z,8.76
2023-10-06T22:16:28.371Z,8.75
2023-10-06T22:18:59.201Z,8.73
2023-10-06T22:21:29.152Z,8.72
2023-10-06T22:23:59.264Z,8.71
2023-10-06T22:26:29.413Z,8.67
2023-10-06T22:28:59.543Z,8.65
2023-10-06T22:31:29.636Z,8.63
2023-10-06T22:33:59.792Z,8.61
2023-10-06T22:36:29.969Z,8.58
2023-10-06T22:39:00.095Z,8.56
2023-10-06T22:41:30.013Z,8.53
2023-10-06T22:44:00.052Z,8.51
2023-10-06T22:46:30.367Z,8.48
2023-10-06T22:49:01.187Z,8.46
2023-10-06T22:51:31.306Z,8.44
2023-10-06T22:54:01.272Z,8.42
2023-10-06T22:56:31.180Z,8.40
2023-10-06T22:59:01.172Z,8.37
2023-10-06T23:01:31.679Z,8.35
2023-10-06T23:04:01.827Z,8.34
2023-10-06T23:06:31.843Z,8.32
2023-10-06T23:09:02.358Z,8.30
2023-10-06T23:11:32.451Z,8.29
2023-10-06T23:14:05.182Z,8.28
2023-10-06T23:16:35.969Z,8.27
2023-10-06T23:19:06.580Z,8.26
2023-10-06T23:21:36.481Z,8.25
2023-10-06T23:24:10.165Z,8.24
2023-10-06T23:26:40.452Z,8.23
2023-10-06T23:29:10.857Z,8.22
2023-10-06T23:31:41.492Z,8.20
2023-10-06T23:34:11.935Z,8.19
2023-10-06T23:36:46.772Z,8.17
2023-10-06T23:39:19.930Z,8.17
2023-10-06T23:41:52.258Z,8.16
2023-10-06T23:44:22.686Z,8.15
2023-10-06T23:46:54.347Z,8.14
2023-10-06T23:49:27.080Z,8.14
2023-10-06T23:51:57.173Z,8.14
2023-10-06T23:54:27.493Z,8.14
2023-10-06T23:56:58.724Z,8.13
2023-10-06T23:59:29.527Z,8.14
